createdAt,value
2022-07-29T00:00:08.391Z,75.40
2022-07-29T00:02:53.864Z,75.60
2022-07-29T00:05:40.892Z,75.50
2022-07-29T00:08:26.415Z,75.30
2022-07-29T00:11:11.841Z,75.50
2022-07-29T00:13:57.316Z,76.30
2022-07-29T00:16:42.918Z,75.40
2022-07-29T00:19:28.461Z,75.60
2022-07-29T00:22:14.052Z,75.60
2022-07-29T00:24:59.808Z,75.50
2022-07-29T00:27:46.805Z,75.20
2022-07-29T00:30:32.500Z,75.30
2022-07-29T00:33:18.184Z,75.00
2022-07-29T00:36:03.537Z,75.10
2022-07-29T00:38:50.146Z,75.20
2022-07-29T00:41:35.387Z,75.00
2022-07-29T00:44:21.100Z,75.00
2022-07-29T00:47:07.263Z,75.20
2022-07-29T00:49:53.191Z,75.20
2022-07-29T00:52:41.033Z,75.20
2022-07-29T00:55:26.538Z,75.10
2022-07-29T00:58:14.867Z,75.20
2022-07-29T01:01:01.637Z,75.30
2022-07-29T01:03:47.433Z,75.20
2022-07-29T01:06:33.274Z,75.30
2022-07-29T01:09:19.857Z,75.40
2022-07-29T01:12:27.318Z,75.50
2022-07-29T01:15:13.283Z,76.10
2022-07-29T01:18:08.229Z,75.30
2022-07-29T01:21:08.153Z,75.50
2022-07-29T01:24:23.568Z,75.60
2022-07-29T01:27:19.338Z,75.50
2022-07-29T01:30:06.764Z,75.60
2022-07-29T01:33:01.135Z,76.20
2022-07-29T01:35:49.072Z,75.40
2022-07-29T01:38:36.956Z,75.30
2022-07-29T01:41:23.789Z,75.20
2022-07-29T01:44:21.216Z,75.10
2022-07-29T01:47:14.437Z,75.10
2022-07-29T01:50:02.571Z,75.10
2022-07-29T01:52:55.210Z,75.00
2022-07-29T01:55:47.061Z,75.20
2022-07-29T01:58:37.477Z,75.10
2022-07-29T02:01:25.604Z,75.10
2022-07-29T02:04:29.327Z,75.10
2022-07-29T02:07:21.217Z,75.00
2022-07-29T02:10:08.486Z,75.00
2022-07-29T02:12:57.228Z,74.90
2022-07-29T02:15:44.586Z,75.00
2022-07-29T02:18:33.845Z,74.70
2022-07-29T02:21:29.295Z,74.80
2022-07-29T02:24:17.185Z,74.80
2022-07-29T02:27:04.595Z,74.70
2022-07-29T02:29:51.722Z,74.70
2022-07-29T02:32:39.337Z,74.80
2022-07-29T02:35:26.471Z,74.60
2022-07-29T02:38:34.803Z,74.50
2022-07-29T02:41:41.230Z,74.50
2022-07-29T02:44:31.384Z,74.50
2022-07-29T02:47:42.075Z,74.60
2022-07-29T02:50:42.458Z,74.50
2022-07-29T02:53:30.307Z,74.50
2022-07-29T02:56:19.899Z,74.50
2022-07-29T02:59:12.550Z,74.40
2022-07-29T03:02:00.070Z,74.20
2022-07-29T03:04:47.183Z,74.10
2022-07-29T03:07:34.728Z,74.30
2022-07-29T03:10:20.267Z,74.10
2022-07-29T03:13:07.498Z,74.10
2022-07-29T03:15:54.308Z,74.20
2022-07-29T03:18:40.725Z,74.10
2022-07-29T03:21:26.185Z,74.00
2022-07-29T03:24:15.629Z,74.00
2022-07-29T03:27:02.071Z,74.10
2022-07-29T03:29:50.652Z,73.90
2022-07-29T03:32:36.851Z,74.00
2022-07-29T03:35:23.648Z,74.10
2022-07-29T03:38:09.363Z,74.10
2022-07-29T03:40:59.664Z,74.10
2022-07-29T03:43:49.537Z,74.10
2022-07-29T03:46:37.723Z,74.10
2022-07-29T03:49:25.878Z,74.00
2022-07-29T03:52:12.047Z,74.00
2022-07-29T03:54:57.953Z,74.00
2022-07-29T03:57:45.442Z,74.10
2022-07-29T04:00:32.027Z,74.10
2022-07-29T04:03:17.668Z,74.00
2022-07-29T04:06:07.487Z,74.10
2022-07-29T04:08:53.036Z,74.10
2022-07-29T04:12:02.612Z,74.30
2022-07-29T04:14:48.825Z,74.40
2022-07-29T04:17:34.476Z,74.50
2022-07-29T04:20:20.370Z,74.50
2022-07-29T04:23:05.916Z,74.50
2022-07-29T04:25:51.429Z,74.50
2022-07-29T04:28:37.035Z,74.40
2022-07-29T04:31:25.737Z,74.50
2022-07-29T04:34:13.239Z,75.70
2022-07-29T04:36:59.174Z,75.10
2022-07-29T04:39:50.913Z,75.00
2022-07-29T04:42:37.667Z,75.00
2022-07-29T04:45:32.174Z,75.10
2022-07-29T04:48:17.757Z,75.30
2022-07-29T04:51:03.640Z,75.50
2022-07-29T04:53:51.642Z,75.50
2022-07-29T04:56:37.345Z,75.50
2022-07-29T04:59:22.685Z,75.50
2022-07-29T05:02:08.438Z,75.50
2022-07-29T05:04:54.415Z,75.70
2022-07-29T05:07:39.667Z,75.70
2022-07-29T05:10:26.761Z,75.40
2022-07-29T05:13:12.463Z,75.50
2022-07-29T05:16:08.823Z,75.40
2022-07-29T05:18:57.201Z,75.50
2022-07-29T05:21:42.812Z,75.40
2022-07-29T05:24:28.472Z,75.50
2022-07-29T05:27:14.417Z,75.60
2022-07-29T05:30:00.073Z,76.40
2022-07-29T05:32:45.625Z,75.60
2022-07-29T05:35:31.286Z,75.50
2022-07-29T05:38:18.796Z,75.40
2022-07-29T05:41:05.872Z,75.40
2022-07-29T05:43:51.339Z,75.50
2022-07-29T05:46:37.256Z,75.40
2022-07-29T05:49:27.330Z,75.30
2022-07-29T05:52:14.417Z,75.50
2022-07-29T05:54:59.889Z,75.40
2022-07-29T05:57:48.285Z,75.50
2022-07-29T06:00:33.908Z,75.70
2022-07-29T06:03:19.399Z,75.50
2022-07-29T06:06:06.954Z,75.30
2022-07-29T06:08:52.222Z,75.30
2022-07-29T06:11:44.874Z,75.10
2022-07-29T06:14:30.984Z,75.10
2022-07-29T06:17:17.956Z,75.00
2022-07-29T06:20:04.324Z,74.70
2022-07-29T06:22:49.653Z,74.80
2022-07-29T06:25:37.695Z,74.50
2022-07-29T06:28:23.895Z,74.30
2022-07-29T06:31:10.218Z,73.70
2022-07-29T06:33:55.789Z,73.60
2022-07-29T06:36:41.374Z,73.40
2022-07-29T06:39:26.994Z,73.10
2022-07-29T06:42:12.569Z,72.40
2022-07-29T06:44:58.440Z,73.10
2022-07-29T06:47:44.163Z,72.50
2022-07-29T06:50:34.655Z,72.40
2022-07-29T06:53:20.153Z,72.20
2022-07-29T06:56:09.695Z,72.40
2022-07-29T06:58:55.333Z,72.30
2022-07-29T07:01:43.157Z,72.00
2022-07-29T07:04:37.977Z,71.80
2022-07-29T07:07:23.439Z,71.80
2022-07-29T07:10:09.317Z,71.50
2022-07-29T07:12:54.927Z,71.10
2022-07-29T07:15:40.529Z,71.10
2022-07-29T07:18:26.388Z,71.00
2022-07-29T07:21:12.907Z,70.60
2022-07-29T07:24:05.267Z,70.50
2022-07-29T07:26:51.361Z,69.80
2022-07-29T07:29:37.294Z,69.80
2022-07-29T07:32:23.235Z,69.90
2022-07-29T07:35:10.347Z,69.60
2022-07-29T07:38:00.220Z,68.60
2022-07-29T07:40:48.478Z,69.00
2022-07-29T07:43:34.094Z,68.50
2022-07-29T07:46:19.590Z,68.00
2022-07-29T07:49:05.105Z,68.10
2022-07-29T07:51:51.183Z,67.60
2022-07-29T07:54:37.002Z,67.20
2022-07-29T07:57:22.773Z,66.70
2022-07-29T08:00:11.177Z,66.40
2022-07-29T08:03:00.084Z,66.20
2022-07-29T08:05:45.769Z,66.20
2022-07-29T08:08:31.786Z,66.20
2022-07-29T08:11:18.006Z,66.20
2022-07-29T08:14:03.764Z,66.20
2022-07-29T08:16:50.246Z,65.80
2022-07-29T08:19:35.999Z,65.40
2022-07-29T08:22:21.738Z,65.20
2022-07-29T08:25:07.393Z,64.50
2022-07-29T08:27:54.069Z,65.80
2022-07-29T08:30:39.712Z,65.20
2022-07-29T08:33:25.246Z,65.10
2022-07-29T08:36:10.938Z,65.20
2022-07-29T08:38:56.537Z,64.90
2022-07-29T08:41:44.663Z,64.70
2022-07-29T08:44:43.295Z,65.00
2022-07-29T08:47:29.343Z,65.30
2022-07-29T08:50:15.231Z,65.00
2022-07-29T08:53:00.948Z,64.40
2022-07-29T08:55:48.661Z,64.60
2022-07-29T08:58:36.855Z,64.90
2022-07-29T09:01:35.054Z,64.60
2022-07-29T09:04:25.925Z,64.30
2022-07-29T09:07:19.500Z,64.30
2022-07-29T09:10:05.998Z,64.20
2022-07-29T09:12:51.949Z,63.80
2022-07-29T09:15:37.609Z,63.30
2022-07-29T09:18:49.531Z,63.70
2022-07-29T09:22:00.090Z,63.50
2022-07-29T09:24:48.519Z,63.50
2022-07-29T09:27:34.705Z,62.80
2022-07-29T09:30:25.472Z,62.50
2022-07-29T09:33:17.708Z,62.60
2022-07-29T09:36:10.476Z,62.70
2022-07-29T09:39:04.044Z,63.00
2022-07-29T09:41:53.916Z,62.70
2022-07-29T09:44:47.755Z,63.00
2022-07-29T09:47:50.994Z,62.80
2022-07-29T09:50:41.500Z,62.60
2022-07-29T09:53:35.740Z,62.70
2022-07-29T09:56:21.040Z,62.50
2022-07-29T09:59:07.704Z,62.70
2022-07-29T10:01:53.837Z,62.60
2022-07-29T10:04:46.658Z,62.50
2022-07-29T10:07:51.783Z,62.80
2022-07-29T10:10:43.541Z,62.70
2022-07-29T10:13:29.449Z,62.50
2022-07-29T10:16:16.223Z,62.50
2022-07-29T10:19:02.378Z,62.30
2022-07-29T10:21:49.552Z,62.10
2022-07-29T10:24:36.434Z,62.50
2022-07-29T10:27:22.005Z,62.30
2022-07-29T10:30:08.982Z,62.50
2022-07-29T10:33:03.407Z,62.40
2022-07-29T10:36:28.069Z,62.20
2022-07-29T10:39:50.903Z,62.00
2022-07-29T10:42:42.397Z,61.50
2022-07-29T10:45:28.245Z,61.70
2022-07-29T10:48:19.740Z,61.50
2022-07-29T10:51:09.648Z,61.60
2022-07-29T10:54:00.753Z,61.80
2022-07-29T10:56:47.743Z,61.90
2022-07-29T10:59:36.431Z,61.70
2022-07-29T11:02:41.975Z,62.20
2022-07-29T11:08:36.985Z,62.20
2022-07-29T11:11:29.819Z,62.40
2022-07-29T11:14:15.659Z,62.20
2022-07-29T11:17:06.346Z,61.90
2022-07-29T11:20:33.510Z,61.70
2022-07-29T11:23:36.716Z,61.20
2022-07-29T11:26:24.754Z,61.20
2022-07-29T11:29:18.564Z,61.20
2022-07-29T11:32:15.750Z,60.60
2022-07-29T11:35:22.274Z,60.40
2022-07-29T11:38:27.826Z,60.30
2022-07-29T11:41:28.777Z,60.70
2022-07-29T11:44:14.229Z,60.40
2022-07-29T11:47:03.952Z,58.70
2022-07-29T11:49:57.138Z,58.00
2022-07-29T11:52:49.525Z,57.80
2022-07-29T11:55:38.892Z,57.50
2022-07-29T11:58:38.380Z,57.20
2022-07-29T12:01:25.649Z,56.90
2022-07-29T12:04:13.883Z,56.50
2022-07-29T12:07:00.475Z,56.10
2022-07-29T12:09:53.767Z,55.70
2022-07-29T12:12:42.749Z,56.30
2022-07-29T12:15:46.231Z,57.00
2022-07-29T12:18:33.305Z,56.90
2022-07-29T12:21:19.010Z,57.10
2022-07-29T12:24:11.483Z,56.30
2022-07-29T12:26:59.589Z,56.30
2022-07-29T12:29:56.153Z,56.70
2022-07-29T12:32:47.467Z,56.40
2022-07-29T12:35:33.147Z,56.50
2022-07-29T12:38:20.367Z,55.90
2022-07-29T12:41:05.940Z,55.70
2022-07-29T12:43:55.877Z,55.40
2022-07-29T12:46:41.560Z,54.90
2022-07-29T12:49:29.813Z,54.60
2022-07-29T12:52:34.930Z,54.10
2022-07-29T12:55:49.893Z,53.40
2022-07-29T12:58:38.105Z,53.00
2022-07-29T13:01:23.925Z,53.10
2022-07-29T13:04:31.159Z,52.20
2022-07-29T13:07:54.062Z,50.10
2022-07-29T13:10:37.578Z,49.20
2022-07-29T13:13:23.738Z,49.60
2022-07-29T13:16:09.400Z,50.00
2022-07-29T13:19:12.507Z,50.10
2022-07-29T13:21:58.501Z,49.70
2022-07-29T13:24:54.906Z,49.80
2022-07-29T13:27:40.723Z,49.50
2022-07-29T13:30:30.139Z,49.70
2022-07-29T13:33:16.193Z,49.10
2022-07-29T13:36:01.560Z,47.70
2022-07-29T13:38:46.939Z,48.20
2022-07-29T13:41:32.489Z,48.00
2022-07-29T13:44:17.753Z,48.20
2022-07-29T13:47:03.741Z,48.30
2022-07-29T13:49:49.958Z,48.20
2022-07-29T13:52:35.663Z,48.30
2022-07-29T13:55:21.180Z,48.40
2022-07-29T13:58:06.532Z,47.90
2022-07-29T14:00:51.815Z,48.30
2022-07-29T14:03:41.683Z,47.70
2022-07-29T14:06:31.544Z,47.80
2022-07-29T14:09:19.958Z,48.40
2022-07-29T14:12:05.730Z,48.30
2022-07-29T14:14:51.359Z,48.80
2022-07-29T14:17:36.922Z,49.00
2022-07-29T14:20:22.088Z,48.70
2022-07-29T14:23:08.075Z,48.30
2022-07-29T14:25:55.233Z,47.90
2022-07-29T14:28:42.047Z,47.00
2022-07-29T14:31:27.407Z,46.60
2022-07-29T14:34:13.168Z,46.40
2022-07-29T14:36:58.786Z,46.00
2022-07-29T14:39:44.143Z,45.80
2022-07-29T14:42:29.777Z,45.20
2022-07-29T14:45:15.197Z,44.90
2022-07-29T14:48:01.428Z,44.50
2022-07-29T14:50:46.969Z,44.80
2022-07-29T14:53:33.060Z,44.70
2022-07-29T14:56:36.006Z,44.80
2022-07-29T14:59:22.084Z,44.80
2022-07-29T15:02:07.872Z,44.70
2022-07-29T15:04:53.481Z,44.40
2022-07-29T15:07:38.666Z,43.90
2022-07-29T15:10:24.678Z,44.40
2022-07-29T15:13:10.495Z,44.10
2022-07-29T15:16:00.061Z,44.40
2022-07-29T15:18:45.673Z,44.50
2022-07-29T15:21:31.213Z,44.50
2022-07-29T15:24:17.825Z,45.30
2022-07-29T15:27:03.435Z,45.30
2022-07-29T15:29:48.932Z,45.30
2022-07-29T15:32:34.440Z,45.30
2022-07-29T15:35:20.007Z,44.60
2022-07-29T15:38:05.612Z,44.90
2022-07-29T15:40:51.085Z,45.00
2022-07-29T15:43:36.706Z,44.80
2022-07-29T15:46:40.541Z,44.80
2022-07-29T15:49:48.786Z,45.90
2022-07-29T15:52:34.964Z,45.00
2022-07-29T15:55:20.569Z,45.00
2022-07-29T15:58:06.068Z,44.70
2022-07-29T16:00:51.828Z,44.90
2022-07-29T16:03:37.423Z,44.60
2022-07-29T16:06:22.965Z,44.40
2022-07-29T16:09:08.627Z,44.10
2022-07-29T16:11:54.144Z,44.00
2022-07-29T16:14:42.914Z,44.20
2022-07-29T16:17:31.354Z,43.70
2022-07-29T16:20:17.587Z,43.70
2022-07-29T16:23:03.784Z,43.80
2022-07-29T16:25:59.549Z,43.70
2022-07-29T16:28:46.083Z,43.60
2022-07-29T16:31:32.875Z,44.10
2022-07-29T16:34:18.703Z,44.50
2022-07-29T16:37:04.787Z,43.30
2022-07-29T16:39:53.397Z,43.20
2022-07-29T16:42:47.399Z,42.90
2022-07-29T16:45:41.841Z,42.30
2022-07-29T16:48:33.088Z,42.10
2022-07-29T16:51:18.388Z,41.70
2022-07-29T16:54:04.475Z,41.30
2022-07-29T16:56:50.081Z,41.20
2022-07-29T16:59:35.660Z,41.50
2022-07-29T17:02:29.593Z,41.90
2022-07-29T17:05:15.964Z,41.90
2022-07-29T17:08:04.273Z,42.10
2022-07-29T17:10:50.843Z,42.70
2022-07-29T17:13:36.354Z,43.50
2022-07-29T17:16:24.743Z,44.10
2022-07-29T17:19:10.464Z,44.50
2022-07-29T17:22:04.671Z,44.60
2022-07-29T17:24:54.658Z,44.80
2022-07-29T17:27:42.530Z,44.90
2022-07-29T17:30:28.396Z,45.20
2022-07-29T17:33:16.967Z,45.70
2022-07-29T17:36:21.761Z,46.20
2022-07-29T17:39:11.277Z,45.90
2022-07-29T17:41:56.747Z,46.10
2022-07-29T17:44:45.183Z,46.50
2022-07-29T17:47:32.908Z,46.60
2022-07-29T17:50:18.617Z,46.70
2022-07-29T17:53:04.215Z,47.10
2022-07-29T17:56:05.311Z,47.50
2022-07-29T17:58:50.965Z,48.50
2022-07-29T18:01:38.179Z,49.30
2022-07-29T18:04:23.971Z,49.70
2022-07-29T18:07:10.495Z,50.30
2022-07-29T18:10:00.294Z,50.80
2022-07-29T18:12:47.673Z,51.00
2022-07-29T18:15:36.099Z,51.60
2022-07-29T18:18:21.531Z,51.80
2022-07-29T18:21:07.169Z,51.90
2022-07-29T18:23:52.730Z,52.30
2022-07-29T18:26:38.561Z,52.70
2022-07-29T18:29:24.231Z,52.90
2022-07-29T18:32:12.967Z,53.00
2022-07-29T18:35:02.683Z,53.40
2022-07-29T18:38:02.200Z,53.60
2022-07-29T18:40:48.429Z,54.00
2022-07-29T18:43:36.065Z,54.30
2022-07-29T18:46:25.483Z,54.90
2022-07-29T18:49:11.313Z,55.20
2022-07-29T18:51:57.018Z,55.60
2022-07-29T18:54:42.294Z,55.80
2022-07-29T18:57:54.745Z,56.20
2022-07-29T19:00:33.474Z,56.70
2022-07-29T19:03:24.303Z,56.70
2022-07-29T19:06:20.619Z,57.10
2022-07-29T19:09:09.979Z,57.60
2022-07-29T19:12:01.962Z,57.80
2022-07-29T19:14:49.014Z,58.10
2022-07-29T19:17:34.589Z,58.40
2022-07-29T19:20:24.977Z,58.70
2022-07-29T19:23:10.567Z,58.90
2022-07-29T19:25:56.194Z,59.10
2022-07-29T19:28:41.871Z,59.20
2022-07-29T19:31:34.837Z,59.70
2022-07-29T19:34:20.344Z,60.00
2022-07-29T19:37:06.026Z,60.40
2022-07-29T19:39:51.320Z,60.70
2022-07-29T19:42:36.700Z,61.20
2022-07-29T19:45:24.429Z,61.60
2022-07-29T19:48:12.573Z,61.90
2022-07-29T19:50:57.803Z,62.20
2022-07-29T19:53:43.307Z,62.60
2022-07-29T19:56:31.976Z,63.70
2022-07-29T19:59:25.331Z,63.30
2022-07-29T20:02:15.022Z,63.80
2022-07-29T20:05:01.604Z,64.20
2022-07-29T20:07:47.867Z,65.30
2022-07-29T20:10:34.690Z,65.00
2022-07-29T20:13:20.180Z,65.30
2022-07-29T20:16:08.252Z,65.80
2022-07-29T20:19:01.836Z,66.20
2022-07-29T20:21:47.264Z,66.70
2022-07-29T20:24:32.913Z,67.10
2022-07-29T20:27:18.873Z,67.60
2022-07-29T20:30:09.356Z,68.10
2022-07-29T20:32:59.656Z,68.40
2022-07-29T20:35:47.793Z,68.70
2022-07-29T20:38:33.240Z,69.00
2022-07-29T20:41:18.935Z,69.20
2022-07-29T20:44:04.977Z,69.60
2022-07-29T20:46:53.354Z,69.90
2022-07-29T20:49:41.796Z,70.30
2022-07-29T20:52:29.470Z,70.60
2022-07-29T20:55:16.135Z,71.50
2022-07-29T20:58:01.970Z,71.00
2022-07-29T21:00:47.859Z,71.30
2022-07-29T21:03:33.506Z,71.60
2022-07-29T21:06:20.420Z,71.70
2022-07-29T21:09:05.953Z,72.10
2022-07-29T21:11:54.244Z,72.50
2022-07-29T21:14:39.639Z,72.70
2022-07-29T21:17:25.237Z,72.80
2022-07-29T21:20:15.153Z,73.00
2022-07-29T21:23:00.807Z,73.40
2022-07-29T21:25:46.971Z,73.60
2022-07-29T21:28:40.588Z,73.80
2022-07-29T21:31:27.385Z,74.80
2022-07-29T21:34:15.709Z,74.00
2022-07-29T21:37:01.524Z,74.30
2022-07-29T21:39:47.575Z,74.80
2022-07-29T21:42:33.708Z,75.00
2022-07-29T21:45:19.573Z,75.30
2022-07-29T21:48:06.018Z,75.70
2022-07-29T21:50:52.385Z,75.90
2022-07-29T21:53:37.903Z,76.00
2022-07-29T21:56:26.350Z,76.10
2022-07-29T21:59:15.534Z,76.90
2022-07-29T22:02:01.185Z,76.20
2022-07-29T22:04:47.302Z,76.30
2022-07-29T22:07:54.277Z,76.60
2022-07-29T22:10:40.903Z,76.90
2022-07-29T22:13:26.553Z,77.10
2022-07-29T22:16:14.991Z,77.10
2022-07-29T22:19:00.965Z,77.20
2022-07-29T22:21:47.248Z,77.50
2022-07-29T22:24:32.643Z,77.50
2022-07-29T22:27:18.825Z,77.70
2022-07-29T22:30:08.115Z,77.80
2022-07-29T22:32:53.574Z,77.90
2022-07-29T22:35:39.199Z,78.20
2022-07-29T22:38:24.667Z,78.50
2022-07-29T22:41:10.463Z,78.40
2022-07-29T22:44:03.668Z,78.50
2022-07-29T22:46:49.226Z,78.70
2022-07-29T22:49:35.634Z,78.70
2022-07-29T22:52:21.247Z,79.00
2022-07-29T22:55:07.494Z,79.20
2022-07-29T22:57:52.736Z,79.40
2022-07-29T23:00:38.314Z,79.40
2022-07-29T23:03:24.091Z,79.50
2022-07-29T23:06:09.719Z,79.60
2022-07-29T23:08:55.558Z,79.80
2022-07-29T23:11:40.943Z,79.70
2022-07-29T23:14:26.665Z,79.50
2022-07-29T23:17:12.315Z,79.80
2022-07-29T23:19:57.855Z,80.10
2022-07-29T23:22:43.553Z,80.40
2022-07-29T23:25:29.436Z,80.60
2022-07-29T23:28:14.852Z,80.70
2022-07-29T23:31:00.528Z,80.80
2022-07-29T23:33:46.414Z,81.00
2022-07-29T23:36:31.893Z,81.10
2022-07-29T23:39:17.456Z,81.10
2022-07-29T23:42:03.373Z,81.50
2022-07-29T23:44:48.691Z,81.60
2022-07-29T23:47:33.747Z,81.90
2022-07-29T23:50:19.419Z,82.80
2022-07-29T23:53:04.919Z,82.20
2022-07-29T23:55:50.427Z,82.20
2022-07-29T23:58:37.249Z,83.10
